sensor_id;sensor_type;location;lat;lon;timestamp;pressure;altitude;pressure_sealevel;temperature;humidity
57885;BME280;43703;51.060;-0.086;2022-12-10T00:00:37;99496.50;;;-3.17;62.53
57885;BME280;43703;51.060;-0.086;2022-12-10T00:03:03;99497.31;;;-3.05;62.65
57885;BME280;43703;51.060;-0.086;2022-12-10T00:05:28;99495.25;;;-3.35;62.81
57885;BME280;43703;51.060;-0.086;2022-12-10T00:07:53;99497.04;;;-2.85;62.65
57885;BME280;43703;51.060;-0.086;2022-12-10T00:10:18;99490.26;;;-3.30;62.43
57885;BME280;43703;51.060;-0.086;2022-12-10T00:12:44;99489.08;;;-2.87;62.56
57885;BME280;43703;51.060;-0.086;2022-12-10T00:15:09;99485.04;;;-3.10;62.59
57885;BME280;43703;51.060;-0.086;2022-12-10T00:17:35;99485.12;;;-2.85;62.52
57885;BME280;43703;51.060;-0.086;2022-12-10T00:20:00;99484.03;;;-3.00;62.39
57885;BME280;43703;51.060;-0.086;2022-12-10T00:22:25;99483.01;;;-3.35;62.56
57885;BME280;43703;51.060;-0.086;2022-12-10T00:24:51;99484.98;;;-3.50;63.61
57885;BME280;43703;51.060;-0.086;2022-12-10T00:27:16;99484.74;;;-3.04;63.17
57885;BME280;43703;51.060;-0.086;2022-12-10T00:29:42;99483.97;;;-3.19;63.00
57885;BME280;43703;51.060;-0.086;2022-12-10T00:32:07;99485.93;;;-2.85;62.97
57885;BME280;43703;51.060;-0.086;2022-12-10T00:34:32;99489.75;;;-2.92;62.14
57885;BME280;43703;51.060;-0.086;2022-12-10T00:36:58;99489.52;;;-2.94;62.42
57885;BME280;43703;51.060;-0.086;2022-12-10T00:39:24;99492.35;;;-2.86;62.58
57885;BME280;43703;51.060;-0.086;2022-12-10T00:41:49;99488.03;;;-3.27;62.35
57885;BME280;43703;51.060;-0.086;2022-12-10T00:44:16;99485.04;;;-3.12;62.17
57885;BME280;43703;51.060;-0.086;2022-12-10T00:46:41;99485.81;;;-3.05;62.56
57885;BME280;43703;51.060;-0.086;2022-12-10T00:49:06;99485.54;;;-3.25;62.75
57885;BME280;43703;51.060;-0.086;2022-12-10T00:51:32;99491.33;;;-2.98;62.98
57885;BME280;43703;51.060;-0.086;2022-12-10T00:53:58;99491.70;;;-3.08;63.06
57885;BME280;43703;51.060;-0.086;2022-12-10T00:56:24;99493.94;;;-3.04;63.12
57885;BME280;43703;51.060;-0.086;2022-12-10T00:58:49;99495.70;;;-2.97;62.99
57885;BME280;43703;51.060;-0.086;2022-12-10T01:01:16;99498.27;;;-3.17;62.99
57885;BME280;43703;51.060;-0.086;2022-12-10T01:03:39;99495.53;;;-3.08;62.99
57885;BME280;43703;51.060;-0.086;2022-12-10T01:06:10;99499.17;;;-3.26;62.93
57885;BME280;43703;51.060;-0.086;2022-12-10T01:08:30;99498.65;;;-2.98;62.84
57885;BME280;43703;51.060;-0.086;2022-12-10T01:10:56;99497.02;;;-2.98;62.95
57885;BME280;43703;51.060;-0.086;2022-12-10T01:13:21;99500.47;;;-3.06;63.28
57885;BME280;43703;51.060;-0.086;2022-12-10T01:15:46;99500.70;;;-2.81;63.01
57885;BME280;43703;51.060;-0.086;2022-12-10T01:18:12;99501.82;;;-3.01;62.87
57885;BME280;43703;51.060;-0.086;2022-12-10T01:20:37;99505.84;;;-2.99;62.93
57885;BME280;43703;51.060;-0.086;2022-12-10T01:23:03;99511.72;;;-3.20;63.06
57885;BME280;43703;51.060;-0.086;2022-12-10T01:25:28;99511.38;;;-2.96;63.07
57885;BME280;43703;51.060;-0.086;2022-12-10T01:27:53;99507.63;;;-3.02;62.46
57885;BME280;43703;51.060;-0.086;2022-12-10T01:30:19;99508.33;;;-3.01;62.41
57885;BME280;43703;51.060;-0.086;2022-12-10T01:32:44;99514.06;;;-3.04;62.78
57885;BME280;43703;51.060;-0.086;2022-12-10T01:35:10;99517.91;;;-2.98;62.87
57885;BME280;43703;51.060;-0.086;2022-12-10T01:37:35;99516.73;;;-3.23;62.62
57885;BME280;43703;51.060;-0.086;2022-12-10T01:40:00;99521.60;;;-3.03;61.89
57885;BME280;43703;51.060;-0.086;2022-12-10T01:42:25;99519.07;;;-3.33;62.26
57885;BME280;43703;51.060;-0.086;2022-12-10T01:47:16;99517.23;;;-3.15;62.67
57885;BME280;43703;51.060;-0.086;2022-12-10T01:49:41;99520.01;;;-3.14;62.89
57885;BME280;43703;51.060;-0.086;2022-12-10T01:52:09;99523.04;;;-3.12;62.76
57885;BME280;43703;51.060;-0.086;2022-12-10T01:54:35;99524.61;;;-3.14;62.45
57885;BME280;43703;51.060;-0.086;2022-12-10T01:56:59;99526.10;;;-3.53;62.30
57885;BME280;43703;51.060;-0.086;2022-12-10T01:59:23;99527.84;;;-3.30;61.99
57885;BME280;43703;51.060;-0.086;2022-12-10T02:01:54;99527.76;;;-3.32;62.67
57885;BME280;43703;51.060;-0.086;2022-12-10T02:04:20;99526.25;;;-3.45;63.20
57885;BME280;43703;51.060;-0.086;2022-12-10T02:06:48;99527.34;;;-3.49;63.34
57885;BME280;43703;51.060;-0.086;2022-12-10T02:09:11;99527.40;;;-3.34;63.29
57885;BME280;43703;51.060;-0.086;2022-12-10T02:11:35;99529.89;;;-3.05;62.83
57885;BME280;43703;51.060;-0.086;2022-12-10T02:13:58;99531.79;;;-3.53;62.59
57885;BME280;43703;51.060;-0.086;2022-12-10T02:16:26;99532.66;;;-3.31;62.54
57885;BME280;43703;51.060;-0.086;2022-12-10T02:18:49;99529.62;;;-3.21;62.30
57885;BME280;43703;51.060;-0.086;2022-12-10T02:21:15;99531.56;;;-3.23;62.74
57885;BME280;43703;51.060;-0.086;2022-12-10T02:23:41;99531.70;;;-3.17;62.48
57885;BME280;43703;51.060;-0.086;2022-12-10T02:26:09;99528.06;;;-3.49;62.75
57885;BME280;43703;51.060;-0.086;2022-12-10T02:28:34;99528.92;;;-3.22;62.53
57885;BME280;43703;51.060;-0.086;2022-12-10T02:30:53;99528.05;;;-3.18;62.75
57885;BME280;43703;51.060;-0.086;2022-12-10T02:33:19;99527.11;;;-3.44;62.39
57885;BME280;43703;51.060;-0.086;2022-12-10T02:35:46;99523.32;;;-3.42;62.57
57885;BME280;43703;51.060;-0.086;2022-12-10T02:38:14;99522.96;;;-3.17;62.67
57885;BME280;43703;51.060;-0.086;2022-12-10T02:40:36;99522.12;;;-3.20;62.64
57885;BME280;43703;51.060;-0.086;2022-12-10T02:43:00;99522.36;;;-3.21;62.45
57885;BME280;43703;51.060;-0.086;2022-12-10T02:45:28;99517.88;;;-3.29;62.85
57885;BME280;43703;51.060;-0.086;2022-12-10T02:47:51;99521.13;;;-3.27;63.14
57885;BME280;43703;51.060;-0.086;2022-12-10T02:50:18;99522.58;;;-3.18;63.07
57885;BME280;43703;51.060;-0.086;2022-12-10T02:52:41;99521.90;;;-3.46;62.79
57885;BME280;43703;51.060;-0.086;2022-12-10T02:55:08;99519.81;;;-3.15;62.51
57885;BME280;43703;51.060;-0.086;2022-12-10T02:57:36;99523.75;;;-3.23;62.66
57885;BME280;43703;51.060;-0.086;2022-12-10T03:00:03;99520.19;;;-3.23;62.64
57885;BME280;43703;51.060;-0.086;2022-12-10T03:02:27;99518.43;;;-3.49;62.63
57885;BME280;43703;51.060;-0.086;2022-12-10T03:04:53;99517.39;;;-3.49;62.66
57885;BME280;43703;51.060;-0.086;2022-12-10T03:07:18;99516.88;;;-3.21;62.81
57885;BME280;43703;51.060;-0.086;2022-12-10T03:09:43;99513.82;;;-3.25;62.41
57885;BME280;43703;51.060;-0.086;2022-12-10T03:12:10;99515.88;;;-3.46;62.09
57885;BME280;43703;51.060;-0.086;2022-12-10T03:14:31;99514.99;;;-3.68;61.78
57885;BME280;43703;51.060;-0.086;2022-12-10T03:16:56;99513.60;;;-3.44;61.93
57885;BME280;43703;51.060;-0.086;2022-12-10T03:19:24;99516.23;;;-3.56;62.22
57885;BME280;43703;51.060;-0.086;2022-12-10T03:21:48;99517.62;;;-4.02;63.33
57885;BME280;43703;51.060;-0.086;2022-12-10T03:24:11;99514.19;;;-3.99;64.94
57885;BME280;43703;51.060;-0.086;2022-12-10T03:26:37;99511.71;;;-4.06;65.76
57885;BME280;43703;51.060;-0.086;2022-12-10T03:29:06;99505.54;;;-3.81;63.73
57885;BME280;43703;51.060;-0.086;2022-12-10T03:31:28;99506.32;;;-3.94;64.08
57885;BME280;43703;51.060;-0.086;2022-12-10T03:33:53;99510.76;;;-4.11;64.30
57885;BME280;43703;51.060;-0.086;2022-12-10T03:36:19;99511.08;;;-4.33;64.08
57885;BME280;43703;51.060;-0.086;2022-12-10T03:38:43;99511.31;;;-3.99;64.69
57885;BME280;43703;51.060;-0.086;2022-12-10T03:41:09;99507.40;;;-3.89;64.37
57885;BME280;43703;51.060;-0.086;2022-12-10T03:43:34;99502.19;;;-3.64;63.26
57885;BME280;43703;51.060;-0.086;2022-12-10T03:46:00;99503.19;;;-3.65;63.10
57885;BME280;43703;51.060;-0.086;2022-12-10T03:48:25;99506.58;;;-3.85;62.52
57885;BME280;43703;51.060;-0.086;2022-12-10T03:50:51;99501.21;;;-3.70;62.37
57885;BME280;43703;51.060;-0.086;2022-12-10T03:53:17;99504.64;;;-4.00;62.70
57885;BME280;43703;51.060;-0.086;2022-12-10T03:55:42;99505.47;;;-4.10;62.51
57885;BME280;43703;51.060;-0.086;2022-12-10T03:58:08;99500.79;;;-3.77;63.04
57885;BME280;43703;51.060;-0.086;2022-12-10T04:00:34;99501.24;;;-3.74;62.75
57885;BME280;43703;51.060;-0.086;2022-12-10T04:02:59;99502.61;;;-3.59;62.83
57885;BME280;43703;51.060;-0.086;2022-12-10T04:05:24;99506.18;;;-3.38;62.46
57885;BME280;43703;51.060;-0.086;2022-12-10T04:07:49;99505.78;;;-3.74;62.36
57885;BME280;43703;51.060;-0.086;2022-12-10T04:10:15;99503.97;;;-3.22;62.29
57885;BME280;43703;51.060;-0.086;2022-12-10T04:12:40;99503.92;;;-3.71;62.48
57885;BME280;43703;51.060;-0.086;2022-12-10T04:15:07;99503.99;;;-3.56;62.66
57885;BME280;43703;51.060;-0.086;2022-12-10T04:17:31;99505.66;;;-3.54;62.77
57885;BME280;43703;51.060;-0.086;2022-12-10T04:19:56;99504.97;;;-3.52;62.79
57885;BME280;43703;51.060;-0.086;2022-12-10T04:22:21;99507.95;;;-3.54;62.87
57885;BME280;43703;51.060;-0.086;2022-12-10T04:24:47;99507.85;;;-3.54;62.28
57885;BME280;43703;51.060;-0.086;2022-12-10T04:27:17;99505.74;;;-3.76;62.34
57885;BME280;43703;51.060;-0.086;2022-12-10T04:29:39;99509.64;;;-3.85;63.47
57885;BME280;43703;51.060;-0.086;2022-12-10T04:32:04;99514.16;;;-3.68;63.10
57885;BME280;43703;51.060;-0.086;2022-12-10T04:34:29;99512.08;;;-3.64;63.46
57885;BME280;43703;51.060;-0.086;2022-12-10T04:36:56;99509.84;;;-3.52;63.19
57885;BME280;43703;51.060;-0.086;2022-12-10T04:39:20;99507.84;;;-3.42;63.02
57885;BME280;43703;51.060;-0.086;2022-12-10T04:41:47;99505.14;;;-3.48;62.67
57885;BME280;43703;51.060;-0.086;2022-12-10T04:44:11;99508.20;;;-3.52;62.65
57885;BME280;43703;51.060;-0.086;2022-12-10T04:46:36;99509.36;;;-3.49;62.52
57885;BME280;43703;51.060;-0.086;2022-12-10T04:49:02;99511.86;;;-3.48;62.77
57885;BME280;43703;51.060;-0.086;2022-12-10T04:51:26;99512.61;;;-3.47;62.92
57885;BME280;43703;51.060;-0.086;2022-12-10T04:53:52;99509.97;;;-3.42;62.60
57885;BME280;43703;51.060;-0.086;2022-12-10T04:56:17;99509.50;;;-3.44;62.79
57885;BME280;43703;51.060;-0.086;2022-12-10T04:58:42;99511.24;;;-3.74;63.21
57885;BME280;43703;51.060;-0.086;2022-12-10T05:01:10;99510.08;;;-3.50;63.17
57885;BME280;43703;51.060;-0.086;2022-12-10T05:03:33;99509.13;;;-3.44;62.62
57885;BME280;43703;51.060;-0.086;2022-12-10T05:06:01;99507.09;;;-3.25;62.79
57885;BME280;43703;51.060;-0.086;2022-12-10T05:08:24;99508.47;;;-3.22;62.59
57885;BME280;43703;51.060;-0.086;2022-12-10T05:10:49;99511.46;;;-3.43;62.58
57885;BME280;43703;51.060;-0.086;2022-12-10T05:13:15;99517.11;;;-3.45;62.70
57885;BME280;43703;51.060;-0.086;2022-12-10T05:15:40;99516.57;;;-3.30;62.61
57885;BME280;43703;51.060;-0.086;2022-12-10T05:18:05;99517.68;;;-3.46;62.42
57885;BME280;43703;51.060;-0.086;2022-12-10T05:20:31;99513.64;;;-3.58;62.54
57885;BME280;43703;51.060;-0.086;2022-12-10T05:22:56;99513.69;;;-3.70;62.56
57885;BME280;43703;51.060;-0.086;2022-12-10T05:25:22;99515.37;;;-4.40;63.72
57885;BME280;43703;51.060;-0.086;2022-12-10T05:27:47;99515.15;;;-4.14;65.48
57885;BME280;43703;51.060;-0.086;2022-12-10T05:30:13;99514.49;;;-3.91;65.01
57885;BME280;43703;51.060;-0.086;2022-12-10T05:32:38;99513.27;;;-3.75;65.11
57885;BME280;43703;51.060;-0.086;2022-12-10T05:35:04;99513.84;;;-3.60;65.25
57885;BME280;43703;51.060;-0.086;2022-12-10T05:37:29;99511.89;;;-3.39;64.67
57885;BME280;43703;51.060;-0.086;2022-12-10T05:39:54;99511.36;;;-3.28;63.69
57885;BME280;43703;51.060;-0.086;2022-12-10T05:42:20;99510.12;;;-3.34;63.82
57885;BME280;43703;51.060;-0.086;2022-12-10T05:44:46;99506.61;;;-3.56;64.82
57885;BME280;43703;51.060;-0.086;2022-12-10T05:47:11;99510.69;;;-3.28;63.37
57885;BME280;43703;51.060;-0.086;2022-12-10T05:49:37;99509.17;;;-3.59;63.95
57885;BME280;43703;51.060;-0.086;2022-12-10T05:52:03;99506.56;;;-3.72;64.04
57885;BME280;43703;51.060;-0.086;2022-12-10T05:54:28;99504.85;;;-3.71;65.37
57885;BME280;43703;51.060;-0.086;2022-12-10T05:56:53;99501.09;;;-3.78;65.49
57885;BME280;43703;51.060;-0.086;2022-12-10T05:59:19;99500.01;;;-3.68;65.36
57885;BME280;43703;51.060;-0.086;2022-12-10T06:01:45;99501.75;;;-3.56;64.82
57885;BME280;43703;51.060;-0.086;2022-12-10T06:04:09;99502.69;;;-3.49;65.39
57885;BME280;43703;51.060;-0.086;2022-12-10T06:06:37;99508.79;;;-3.29;65.16
57885;BME280;43703;51.060;-0.086;2022-12-10T06:09:00;99509.58;;;-3.15;63.73
57885;BME280;43703;51.060;-0.086;2022-12-10T06:11:26;99513.27;;;-3.13;63.60
57885;BME280;43703;51.060;-0.086;2022-12-10T06:13:51;99512.78;;;-3.48;64.69
57885;BME280;43703;51.060;-0.086;2022-12-10T06:16:16;99514.93;;;-3.26;64.39
57885;BME280;43703;51.060;-0.086;2022-12-10T06:18:42;99512.52;;;-3.41;63.46
57885;BME280;43703;51.060;-0.086;2022-12-10T06:21:09;99513.15;;;-3.24;63.63
57885;BME280;43703;51.060;-0.086;2022-12-10T06:23:34;99515.42;;;-3.14;63.65
57885;BME280;43703;51.060;-0.086;2022-12-10T06:25:58;99516.28;;;-3.40;62.79
57885;BME280;43703;51.060;-0.086;2022-12-10T06:28:23;99520.03;;;-3.12;62.97
57885;BME280;43703;51.060;-0.086;2022-12-10T06:30:48;99520.41;;;-3.34;62.73
57885;BME280;43703;51.060;-0.086;2022-12-10T06:33:14;99520.43;;;-3.51;62.72
57885;BME280;43703;51.060;-0.086;2022-12-10T06:35:39;99522.41;;;-3.25;62.48
57885;BME280;43703;51.060;-0.086;2022-12-10T06:38:04;99521.98;;;-3.29;62.65
57885;BME280;43703;51.060;-0.086;2022-12-10T06:40:29;99523.70;;;-3.58;62.76
57885;BME280;43703;51.060;-0.086;2022-12-10T06:42:55;99523.61;;;-3.29;62.47
57885;BME280;43703;51.060;-0.086;2022-12-10T06:45:21;99524.76;;;-3.29;62.53
57885;BME280;43703;51.060;-0.086;2022-12-10T06:47:46;99529.22;;;-3.83;63.33
57885;BME280;43703;51.060;-0.086;2022-12-10T06:50:11;99529.43;;;-3.61;62.73
57885;BME280;43703;51.060;-0.086;2022-12-10T06:52:37;99526.84;;;-3.48;62.69
57885;BME280;43703;51.060;-0.086;2022-12-10T06:55:03;99531.69;;;-3.87;64.27
57885;BME280;43703;51.060;-0.086;2022-12-10T06:57:28;99530.33;;;-3.47;63.26
57885;BME280;43703;51.060;-0.086;2022-12-10T06:59:54;99527.79;;;-3.27;63.17
57885;BME280;43703;51.060;-0.086;2022-12-10T07:02:19;99526.60;;;-3.59;62.18
57885;BME280;43703;51.060;-0.086;2022-12-10T07:04:45;99528.27;;;-3.45;62.54
57885;BME280;43703;51.060;-0.086;2022-12-10T07:07:10;99528.14;;;-3.59;63.01
57885;BME280;43703;51.060;-0.086;2022-12-10T07:09:36;99532.11;;;-3.38;62.85
57885;BME280;43703;51.060;-0.086;2022-12-10T07:12:01;99525.23;;;-3.46;62.40
57885;BME280;43703;51.060;-0.086;2022-12-10T07:14:27;99526.67;;;-3.92;63.93
57885;BME280;43703;51.060;-0.086;2022-12-10T07:16:52;99524.31;;;-3.48;64.15
57885;BME280;43703;51.060;-0.086;2022-12-10T07:19:18;99525.80;;;-3.76;64.68
57885;BME280;43703;51.060;-0.086;2022-12-10T07:21:43;99529.46;;;-3.52;64.01
57885;BME280;43703;51.060;-0.086;2022-12-10T07:24:11;99527.57;;;-3.50;64.00
57885;BME280;43703;51.060;-0.086;2022-12-10T07:26:36;99533.64;;;-3.38;63.73
57885;BME280;43703;51.060;-0.086;2022-12-10T07:29:00;99536.25;;;-3.37;63.19
57885;BME280;43703;51.060;-0.086;2022-12-10T07:31:26;99541.58;;;-3.34;62.95
57885;BME280;43703;51.060;-0.086;2022-12-10T07:33:53;99540.06;;;-3.62;63.16
57885;BME280;43703;51.060;-0.086;2022-12-10T07:36:17;99540.58;;;-3.41;63.09
57885;BME280;43703;51.060;-0.086;2022-12-10T07:38:42;99542.75;;;-3.52;63.43
57885;BME280;43703;51.060;-0.086;2022-12-10T07:41:10;99544.82;;;-3.76;63.56
57885;BME280;43703;51.060;-0.086;2022-12-10T07:43:33;99545.08;;;-3.39;63.07
57885;BME280;43703;51.060;-0.086;2022-12-10T07:46:03;99547.66;;;-3.76;63.85
57885;BME280;43703;51.060;-0.086;2022-12-10T07:48:23;99546.54;;;-3.58;63.71
57885;BME280;43703;51.060;-0.086;2022-12-10T07:50:55;99547.43;;;-3.59;63.76
57885;BME280;43703;51.060;-0.086;2022-12-10T07:53:14;99548.09;;;-3.47;63.39
57885;BME280;43703;51.060;-0.086;2022-12-10T07:55:39;99546.36;;;-3.37;63.28
57885;BME280;43703;51.060;-0.086;2022-12-10T07:58:05;99547.90;;;-3.37;62.61
57885;BME280;43703;51.060;-0.086;2022-12-10T08:00:30;99553.30;;;-3.71;62.73
57885;BME280;43703;51.060;-0.086;2022-12-10T08:02:55;99552.34;;;-3.34;62.63
57885;BME280;43703;51.060;-0.086;2022-12-10T08:05:21;99556.44;;;-3.46;62.09
57885;BME280;43703;51.060;-0.086;2022-12-10T08:07:46;99558.04;;;-3.65;62.51
57885;BME280;43703;51.060;-0.086;2022-12-10T08:10:12;99560.77;;;-3.47;62.49
57885;BME280;43703;51.060;-0.086;2022-12-10T08:12:37;99560.60;;;-3.46;62.54
57885;BME280;43703;51.060;-0.086;2022-12-10T08:15:03;99562.11;;;-3.41;63.00
57885;BME280;43703;51.060;-0.086;2022-12-10T08:17:29;99561.19;;;-3.34;62.73
57885;BME280;43703;51.060;-0.086;2022-12-10T08:19:54;99559.99;;;-3.29;62.37
57885;BME280;43703;51.060;-0.086;2022-12-10T08:22:20;99559.30;;;-3.58;62.80
57885;BME280;43703;51.060;-0.086;2022-12-10T08:24:45;99562.42;;;-3.46;62.62
57885;BME280;43703;51.060;-0.086;2022-12-10T08:27:11;99562.10;;;-3.21;61.89
57885;BME280;43703;51.060;-0.086;2022-12-10T08:29:36;99562.11;;;-3.52;62.53
57885;BME280;43703;51.060;-0.086;2022-12-10T08:32:02;99563.30;;;-3.20;63.24
57885;BME280;43703;51.060;-0.086;2022-12-10T08:34:27;99565.32;;;-3.04;63.00
57885;BME280;43703;51.060;-0.086;2022-12-10T08:36:53;99565.46;;;-3.03;62.88
57885;BME280;43703;51.060;-0.086;2022-12-10T08:39:18;99566.86;;;-3.32;62.80
57885;BME280;43703;51.060;-0.086;2022-12-10T08:41:44;99568.14;;;-3.14;63.14
57885;BME280;43703;51.060;-0.086;2022-12-10T08:44:09;99570.66;;;-3.11;62.69
57885;BME280;43703;51.060;-0.086;2022-12-10T08:46:35;99573.48;;;-2.71;62.94
57885;BME280;43703;51.060;-0.086;2022-12-10T08:49:00;99573.48;;;-3.21;63.06
57885;BME280;43703;51.060;-0.086;2022-12-10T08:51:26;99573.87;;;-2.77;63.53
57885;BME280;43703;51.060;-0.086;2022-12-10T08:53:51;99574.07;;;-2.54;64.03
57885;BME280;43703;51.060;-0.086;2022-12-10T08:56:16;99576.08;;;-2.16;64.74
57885;BME280;43703;51.060;-0.086;2022-12-10T08:58:42;99572.18;;;-1.67;63.98
57885;BME280;43703;51.060;-0.086;2022-12-10T09:01:08;99576.18;;;-1.48;64.52
57885;BME280;43703;51.060;-0.086;2022-12-10T09:03:32;99578.54;;;-1.30;62.36
57885;BME280;43703;51.060;-0.086;2022-12-10T09:06:02;99575.96;;;-0.89;62.25
57885;BME280;43703;51.060;-0.086;2022-12-10T09:08:23;99577.87;;;-0.07;63.20
57885;BME280;43703;51.060;-0.086;2022-12-10T09:10:48;99573.27;;;0.20;60.35
57885;BME280;43703;51.060;-0.086;2022-12-10T09:13:14;99569.61;;;0.24;58.59
57885;BME280;43703;51.060;-0.086;2022-12-10T09:15:40;99569.87;;;0.64;58.65
57885;BME280;43703;51.060;-0.086;2022-12-10T09:18:05;99569.46;;;1.02;61.12
57885;BME280;43703;51.060;-0.086;2022-12-10T09:20:31;99573.02;;;1.32;57.45
57885;BME280;43703;51.060;-0.086;2022-12-10T09:22:56;99571.21;;;1.92;56.37
57885;BME280;43703;51.060;-0.086;2022-12-10T09:25:22;99570.47;;;3.32;54.91
57885;BME280;43703;51.060;-0.086;2022-12-10T09:27:48;99573.32;;;4.01;52.58
57885;BME280;43703;51.060;-0.086;2022-12-10T09:30:13;99570.95;;;5.04;51.74
57885;BME280;43703;51.060;-0.086;2022-12-10T09:32:38;99570.53;;;5.61;52.65
57885;BME280;43703;51.060;-0.086;2022-12-10T09:35:04;99567.28;;;5.98;49.19
57885;BME280;43703;51.060;-0.086;2022-12-10T09:37:28;99568.56;;;6.09;48.42
57885;BME280;43703;51.060;-0.086;2022-12-10T09:39:54;99570.23;;;6.35;45.82
57885;BME280;43703;51.060;-0.086;2022-12-10T09:42:31;99571.13;;;6.14;45.09
57885;BME280;43703;51.060;-0.086;2022-12-10T09:44:53;99577.19;;;6.95;46.39
57885;BME280;43703;51.060;-0.086;2022-12-10T09:47:11;99577.61;;;6.61;45.82
57885;BME280;43703;51.060;-0.086;2022-12-10T09:49:47;99582.09;;;6.74;52.78
57885;BME280;43703;51.060;-0.086;2022-12-10T09:52:03;99583.50;;;6.93;49.50
57885;BME280;43703;51.060;-0.086;2022-12-10T09:54:29;99583.61;;;5.78;48.91
57885;BME280;43703;51.060;-0.086;2022-12-10T09:56:53;99584.90;;;4.36;48.67
57885;BME280;43703;51.060;-0.086;2022-12-10T09:59:22;99589.74;;;4.19;49.22
57885;BME280;43703;51.060;-0.086;2022-12-10T10:01:44;99586.96;;;3.52;49.72
57885;BME280;43703;51.060;-0.086;2022-12-10T10:04:09;99588.02;;;2.61;52.60
57885;BME280;43703;51.060;-0.086;2022-12-10T10:06:33;99585.98;;;2.01;53.81
57885;BME280;43703;51.060;-0.086;2022-12-10T10:09:01;99589.71;;;0.79;55.34
57885;BME280;43703;51.060;-0.086;2022-12-10T10:11:28;99592.17;;;1.47;56.12
57885;BME280;43703;51.060;-0.086;2022-12-10T10:13:53;99594.40;;;1.28;56.36
57885;BME280;43703;51.060;-0.086;2022-12-10T10:16:23;99597.96;;;1.30;57.02
57885;BME280;43703;51.060;-0.086;2022-12-10T10:18:43;99597.36;;;1.32;57.74
57885;BME280;43703;51.060;-0.086;2022-12-10T10:21:13;99597.79;;;1.26;57.92
57885;BME280;43703;51.060;-0.086;2022-12-10T10:23:31;99598.37;;;1.38;58.43
57885;BME280;43703;51.060;-0.086;2022-12-10T10:25:57;99598.64;;;1.36;58.59
57885;BME280;43703;51.060;-0.086;2022-12-10T10:28:23;99599.61;;;1.39;58.24
57885;BME280;43703;51.060;-0.086;2022-12-10T10:30:48;99599.63;;;1.74;59.23
57885;BME280;43703;51.060;-0.086;2022-12-10T10:33:15;99596.95;;;2.13;59.09
57885;BME280;43703;51.060;-0.086;2022-12-10T10:35:44;99598.10;;;1.85;58.71
57885;BME280;43703;51.060;-0.086;2022-12-10T10:38:06;99597.83;;;2.06;58.68
57885;BME280;43703;51.060;-0.086;2022-12-10T10:40:33;99597.62;;;2.90;58.49
57885;BME280;43703;51.060;-0.086;2022-12-10T10:42:57;99596.98;;;2.80;57.21
57885;BME280;43703;51.060;-0.086;2022-12-10T10:47:47;99593.14;;;2.64;57.04
57885;BME280;43703;51.060;-0.086;2022-12-10T10:50:23;99591.91;;;2.61;56.68
57885;BME280;43703;51.060;-0.086;2022-12-10T10:52:38;99589.34;;;1.92;56.61
57885;BME280;43703;51.060;-0.086;2022-12-10T10:55:04;99589.04;;;3.07;55.92
57885;BME280;43703;51.060;-0.086;2022-12-10T10:57:33;99588.71;;;2.61;56.68
57885;BME280;43703;51.060;-0.086;2022-12-10T10:59:55;99590.03;;;2.48;56.84
57885;BME280;43703;51.060;-0.086;2022-12-10T11:02:23;99592.77;;;2.26;56.90
57885;BME280;43703;51.060;-0.086;2022-12-10T11:04:47;99593.38;;;2.20;57.15
57885;BME280;43703;51.060;-0.086;2022-12-10T11:07:19;99594.95;;;2.27;57.69
57885;BME280;43703;51.060;-0.086;2022-12-10T11:09:36;99596.28;;;2.59;57.71
57885;BME280;43703;51.060;-0.086;2022-12-10T11:12:04;99593.39;;;3.09;57.73
57885;BME280;43703;51.060;-0.086;2022-12-10T11:14:30;99590.68;;;2.52;57.22
57885;BME280;43703;51.060;-0.086;2022-12-10T11:17:01;99591.32;;;2.04;57.11
57885;BME280;43703;51.060;-0.086;2022-12-10T11:19:20;99592.40;;;2.35;57.19
57885;BME280;43703;51.060;-0.086;2022-12-10T11:21:43;99588.82;;;1.98;56.99
57885;BME280;43703;51.060;-0.086;2022-12-10T11:24:11;99592.81;;;1.88;58.09
57885;BME280;43703;51.060;-0.086;2022-12-10T11:26:43;99592.47;;;1.20;59.14
57885;BME280;43703;51.060;-0.086;2022-12-10T11:29:10;99591.92;;;2.14;58.05
57885;BME280;43703;51.060;-0.086;2022-12-10T11:31:35;99586.90;;;1.69;59.14
57885;BME280;43703;51.060;-0.086;2022-12-10T11:33:55;99585.03;;;2.04;59.22
57885;BME280;43703;51.060;-0.086;2022-12-10T11:36:25;99585.48;;;1.96;58.97
57885;BME280;43703;51.060;-0.086;2022-12-10T11:38:47;99586.56;;;1.61;58.06
57885;BME280;43703;51.060;-0.086;2022-12-10T11:41:14;99585.08;;;1.55;59.97
57885;BME280;43703;51.060;-0.086;2022-12-10T11:43:42;99585.42;;;2.16;58.35
57885;BME280;43703;51.060;-0.086;2022-12-10T11:46:07;99583.70;;;2.34;58.42
57885;BME280;43703;51.060;-0.086;2022-12-10T11:48:32;99579.87;;;1.95;58.70
57885;BME280;43703;51.060;-0.086;2022-12-10T11:50:48;99578.55;;;2.26;57.45
57885;BME280;43703;51.060;-0.086;2022-12-10T11:55:46;99576.90;;;3.32;57.62
57885;BME280;43703;51.060;-0.086;2022-12-10T11:58:15;99578.75;;;3.12;56.40
57885;BME280;43703;51.060;-0.086;2022-12-10T12:00:36;99571.75;;;3.31;56.56
57885;BME280;43703;51.060;-0.086;2022-12-10T12:03:05;99572.10;;;4.40;55.43
57885;BME280;43703;51.060;-0.086;2022-12-10T12:05:27;99567.42;;;5.45;53.44
57885;BME280;43703;51.060;-0.086;2022-12-10T12:07:50;99569.54;;;5.11;54.46
57885;BME280;43703;51.060;-0.086;2022-12-10T12:10:32;99570.05;;;5.06;53.75
57885;BME280;43703;51.060;-0.086;2022-12-10T12:12:41;99572.72;;;5.88;52.48
57885;BME280;43703;51.060;-0.086;2022-12-10T12:15:02;99575.62;;;5.92;50.14
57885;BME280;43703;51.060;-0.086;2022-12-10T12:17:28;99576.00;;;6.27;49.68
57885;BME280;43703;51.060;-0.086;2022-12-10T12:19:54;99576.12;;;6.13;51.28
57885;BME280;43703;51.060;-0.086;2022-12-10T12:22:23;99568.93;;;5.38;49.83
57885;BME280;43703;51.060;-0.086;2022-12-10T12:24:44;99569.22;;;6.29;48.98
57885;BME280;43703;51.060;-0.086;2022-12-10T12:27:14;99563.86;;;5.17;49.73
57885;BME280;43703;51.060;-0.086;2022-12-10T12:29:35;99561.86;;;6.10;49.92
57885;BME280;43703;51.060;-0.086;2022-12-10T12:32:02;99562.82;;;6.29;48.34
57885;BME280;43703;51.060;-0.086;2022-12-10T12:34:29;99560.48;;;7.84;47.35
57885;BME280;43703;51.060;-0.086;2022-12-10T12:36:49;99556.14;;;7.21;47.12
57885;BME280;43703;51.060;-0.086;2022-12-10T12:39:21;99558.78;;;7.02;47.59
57885;BME280;43703;51.060;-0.086;2022-12-10T12:41:46;99556.83;;;7.67;46.36
57885;BME280;43703;51.060;-0.086;2022-12-10T12:44:14;99553.05;;;7.59;45.23
57885;BME280;43703;51.060;-0.086;2022-12-10T12:46:38;99554.94;;;7.41;45.90
57885;BME280;43703;51.060;-0.086;2022-12-10T12:49:01;99552.52;;;5.91;48.50